sensor_id;sensor_type;location;lat;lon;timestamp;P1;durP1;ratioP1;P2;durP2;ratioP2
52112;SDS011;38109;49.488;31.988;2023-05-10T00:00:23;2.03;;;1.50;;
52112;SDS011;38109;49.488;31.988;2023-05-10T00:02:49;1.65;;;1.42;;
52112;SDS011;38109;49.488;31.988;2023-05-10T00:05:15;1.33;;;1.23;;
52112;SDS011;38109;49.488;31.988;2023-05-10T00:07:40;1.85;;;1.65;;
52112;SDS011;38109;49.488;31.988;2023-05-10T00:10:09;2.15;;;1.52;;
52112;SDS011;38109;49.488;31.988;2023-05-10T00:12:36;1.60;;;1.50;;
52112;SDS011;38109;49.488;31.988;2023-05-10T00:15:02;2.30;;;1.52;;
52112;SDS011;38109;49.488;31.988;2023-05-10T00:17:28;1.50;;;1.40;;
52112;SDS011;38109;49.488;31.988;2023-05-10T00:19:53;3.20;;;1.38;;
52112;SDS011;38109;49.488;31.988;2023-05-10T00:22:19;2.70;;;1.60;;
52112;SDS011;38109;49.488;31.988;2023-05-10T00:24:45;1.88;;;1.73;;
52112;SDS011;38109;49.488;31.988;2023-05-10T00:27:11;1.40;;;1.30;;
52112;SDS011;38109;49.488;31.988;2023-05-10T00:29:36;1.60;;;1.40;;
52112;SDS011;38109;49.488;31.988;2023-05-10T00:32:02;1.50;;;1.40;;
52112;SDS011;38109;49.488;31.988;2023-05-10T00:34:28;1.50;;;1.40;;
52112;SDS011;38109;49.488;31.988;2023-05-10T00:36:54;1.60;;;1.50;;
52112;SDS011;38109;49.488;31.988;2023-05-10T00:39:19;2.05;;;1.40;;
52112;SDS011;38109;49.488;31.988;2023-05-10T00:41:45;1.30;;;1.20;;
52112;SDS011;38109;49.488;31.988;2023-05-10T00:44:11;2.17;;;1.55;;
52112;SDS011;38109;49.488;31.988;2023-05-10T00:46:36;1.85;;;1.50;;
52112;SDS011;38109;49.488;31.988;2023-05-10T00:49:02;2.13;;;1.35;;
52112;SDS011;38109;49.488;31.988;2023-05-10T00:51:28;1.63;;;1.52;;
52112;SDS011;38109;49.488;31.988;2023-05-10T00:53:53;3.92;;;1.80;;
52112;SDS011;38109;49.488;31.988;2023-05-10T00:56:21;1.50;;;1.40;;
52112;SDS011;38109;49.488;31.988;2023-05-10T00:58:48;1.65;;;1.40;;
52112;SDS011;38109;49.488;31.988;2023-05-10T01:01:14;1.80;;;1.40;;
52112;SDS011;38109;49.488;31.988;2023-05-10T01:03:40;1.40;;;1.30;;
52112;SDS011;38109;49.488;31.988;2023-05-10T01:06:06;1.75;;;1.42;;
52112;SDS011;38109;49.488;31.988;2023-05-10T01:08:32;1.70;;;1.50;;
52112;SDS011;38109;49.488;31.988;2023-05-10T01:10:58;2.25;;;1.13;;
52112;SDS011;38109;49.488;31.988;2023-05-10T01:13:30;1.70;;;1.55;;
52112;SDS011;38109;49.488;31.988;2023-05-10T01:15:57;1.65;;;1.45;;
52112;SDS011;38109;49.488;31.988;2023-05-10T01:18:23;1.77;;;1.60;;
52112;SDS011;38109;49.488;31.988;2023-05-10T01:20:54;1.30;;;1.20;;
52112;SDS011;38109;49.488;31.988;2023-05-10T01:23:53;1.73;;;1.52;;
52112;SDS011;38109;49.488;31.988;2023-05-10T01:26:33;3.17;;;1.60;;
52112;SDS011;38109;49.488;31.988;2023-05-10T01:29:18;3.05;;;1.42;;
52112;SDS011;38109;49.488;31.988;2023-05-10T01:37:49;1.73;;;1.50;;
52112;SDS011;38109;49.488;31.988;2023-05-10T01:43:26;2.10;;;1.40;;
52112;SDS011;38109;49.488;31.988;2023-05-10T01:48:25;1.77;;;1.45;;
52112;SDS011;38109;49.488;31.988;2023-05-10T01:50:53;2.88;;;1.30;;
52112;SDS011;38109;49.488;31.988;2023-05-10T01:53:21;1.80;;;1.40;;
52112;SDS011;38109;49.488;31.988;2023-05-10T01:55:49;2.40;;;1.85;;
52112;SDS011;38109;49.488;31.988;2023-05-10T01:58:21;2.28;;;1.90;;
52112;SDS011;38109;49.488;31.988;2023-05-10T02:00:50;2.00;;;1.80;;
52112;SDS011;38109;49.488;31.988;2023-05-10T02:03:18;2.80;;;1.83;;
52112;SDS011;38109;49.488;31.988;2023-05-10T02:05:47;3.13;;;2.00;;
52112;SDS011;38109;49.488;31.988;2023-05-10T02:08:14;3.60;;;2.28;;
52112;SDS011;38109;49.488;31.988;2023-05-10T02:10:42;7.60;;;2.08;;
52112;SDS011;38109;49.488;31.988;2023-05-10T02:13:10;5.03;;;2.55;;
52112;SDS011;38109;49.488;31.988;2023-05-10T02:15:36;4.82;;;2.50;;
52112;SDS011;38109;49.488;31.988;2023-05-10T02:18:03;4.22;;;2.58;;
52112;SDS011;38109;49.488;31.988;2023-05-10T02:20:31;4.80;;;2.40;;
52112;SDS011;38109;49.488;31.988;2023-05-10T02:22:57;4.43;;;2.65;;
52112;SDS011;38109;49.488;31.988;2023-05-10T02:25:23;3.15;;;2.40;;
52112;SDS011;38109;49.488;31.988;2023-05-10T02:27:51;3.90;;;2.38;;
52112;SDS011;38109;49.488;31.988;2023-05-10T02:30:20;3.15;;;2.13;;
52112;SDS011;38109;49.488;31.988;2023-05-10T02:32:47;3.80;;;2.40;;
52112;SDS011;38109;49.488;31.988;2023-05-10T02:35:15;7.18;;;2.90;;
52112;SDS011;38109;49.488;31.988;2023-05-10T02:37:42;3.75;;;2.22;;
52112;SDS011;38109;49.488;31.988;2023-05-10T02:40:10;3.33;;;2.42;;
52112;SDS011;38109;49.488;31.988;2023-05-10T02:42:38;3.75;;;2.53;;
52112;SDS011;38109;49.488;31.988;2023-05-10T02:45:10;3.13;;;2.40;;
52112;SDS011;38109;49.488;31.988;2023-05-10T02:50:05;4.07;;;2.30;;
52112;SDS011;38109;49.488;31.988;2023-05-10T02:52:36;4.22;;;2.50;;
52112;SDS011;38109;49.488;31.988;2023-05-10T02:55:12;3.88;;;2.75;;
52112;SDS011;38109;49.488;31.988;2023-05-10T02:57:43;3.83;;;2.63;;
52112;SDS011;38109;49.488;31.988;2023-05-10T03:00:15;3.70;;;2.58;;
52112;SDS011;38109;49.488;31.988;2023-05-10T03:02:41;3.22;;;2.42;;
52112;SDS011;38109;49.488;31.988;2023-05-10T03:05:07;5.05;;;2.83;;
52112;SDS011;38109;49.488;31.988;2023-05-10T03:07:33;3.45;;;2.60;;
52112;SDS011;38109;49.488;31.988;2023-05-10T03:09:59;3.90;;;2.58;;
52112;SDS011;38109;49.488;31.988;2023-05-10T03:12:31;3.58;;;2.50;;
52112;SDS011;38109;49.488;31.988;2023-05-10T03:15:17;4.57;;;2.90;;
52112;SDS011;38109;49.488;31.988;2023-05-10T03:18:06;3.25;;;2.22;;
52112;SDS011;38109;49.488;31.988;2023-05-10T03:20:38;4.38;;;2.60;;
52112;SDS011;38109;49.488;31.988;2023-05-10T03:23:12;4.45;;;2.83;;
52112;SDS011;38109;49.488;31.988;2023-05-10T03:25:39;5.15;;;2.70;;
52112;SDS011;38109;49.488;31.988;2023-05-10T03:28:06;3.38;;;2.33;;
52112;SDS011;38109;49.488;31.988;2023-05-10T03:30:32;3.83;;;2.47;;
52112;SDS011;38109;49.488;31.988;2023-05-10T03:33:03;3.35;;;2.20;;
52112;SDS011;38109;49.488;31.988;2023-05-10T03:35:32;4.22;;;2.67;;
52112;SDS011;38109;49.488;31.988;2023-05-10T03:37:58;3.47;;;2.45;;
52112;SDS011;38109;49.488;31.988;2023-05-10T03:40:24;4.82;;;2.88;;
52112;SDS011;38109;49.488;31.988;2023-05-10T03:42:51;4.72;;;2.55;;
52112;SDS011;38109;49.488;31.988;2023-05-10T03:45:16;5.45;;;2.85;;
52112;SDS011;38109;49.488;31.988;2023-05-10T03:47:42;3.05;;;2.20;;
52112;SDS011;38109;49.488;31.988;2023-05-10T03:50:08;3.78;;;2.42;;
52112;SDS011;38109;49.488;31.988;2023-05-10T03:52:35;4.43;;;2.20;;
52112;SDS011;38109;49.488;31.988;2023-05-10T03:55:00;3.08;;;2.00;;
52112;SDS011;38109;49.488;31.988;2023-05-10T03:57:28;4.78;;;2.67;;
52112;SDS011;38109;49.488;31.988;2023-05-10T03:59:54;3.13;;;2.20;;
52112;SDS011;38109;49.488;31.988;2023-05-10T04:02:19;3.40;;;2.55;;
52112;SDS011;38109;49.488;31.988;2023-05-10T04:04:45;3.67;;;2.50;;
52112;SDS011;38109;49.488;31.988;2023-05-10T04:07:11;3.65;;;2.30;;
52112;SDS011;38109;49.488;31.988;2023-05-10T04:09:36;4.07;;;2.55;;
52112;SDS011;38109;49.488;31.988;2023-05-10T04:12:02;3.75;;;2.53;;
52112;SDS011;38109;49.488;31.988;2023-05-10T04:14:28;4.75;;;2.50;;
52112;SDS011;38109;49.488;31.988;2023-05-10T04:16:53;3.63;;;2.60;;
52112;SDS011;38109;49.488;31.988;2023-05-10T04:19:20;5.00;;;2.55;;
52112;SDS011;38109;49.488;31.988;2023-05-10T04:21:45;5.63;;;2.45;;
52112;SDS011;38109;49.488;31.988;2023-05-10T04:24:11;4.68;;;2.60;;
52112;SDS011;38109;49.488;31.988;2023-05-10T04:26:37;5.60;;;2.55;;
52112;SDS011;38109;49.488;31.988;2023-05-10T04:29:03;4.00;;;2.70;;
52112;SDS011;38109;49.488;31.988;2023-05-10T04:31:28;3.85;;;2.75;;
52112;SDS011;38109;49.488;31.988;2023-05-10T04:33:54;3.30;;;2.45;;
52112;SDS011;38109;49.488;31.988;2023-05-10T04:36:19;6.07;;;2.85;;
52112;SDS011;38109;49.488;31.988;2023-05-10T04:38:45;3.67;;;2.65;;
52112;SDS011;38109;49.488;31.988;2023-05-10T04:41:11;4.53;;;3.08;;
52112;SDS011;38109;49.488;31.988;2023-05-10T04:43:37;4.05;;;2.67;;
52112;SDS011;38109;49.488;31.988;2023-05-10T04:46:03;5.25;;;2.65;;
52112;SDS011;38109;49.488;31.988;2023-05-10T04:48:30;4.95;;;3.03;;
52112;SDS011;38109;49.488;31.988;2023-05-10T04:50:55;4.95;;;2.55;;
52112;SDS011;38109;49.488;31.988;2023-05-10T04:53:21;3.03;;;2.10;;
52112;SDS011;38109;49.488;31.988;2023-05-10T04:55:47;3.75;;;2.33;;
52112;SDS011;38109;49.488;31.988;2023-05-10T04:58:13;4.25;;;2.42;;
52112;SDS011;38109;49.488;31.988;2023-05-10T05:00:38;4.85;;;2.78;;
52112;SDS011;38109;49.488;31.988;2023-05-10T05:03:04;4.60;;;2.70;;
52112;SDS011;38109;49.488;31.988;2023-05-10T05:05:30;5.28;;;2.83;;
52112;SDS011;38109;49.488;31.988;2023-05-10T05:07:56;3.80;;;2.40;;
52112;SDS011;38109;49.488;31.988;2023-05-10T05:10:21;4.18;;;2.60;;
52112;SDS011;38109;49.488;31.988;2023-05-10T05:12:47;3.90;;;2.63;;
52112;SDS011;38109;49.488;31.988;2023-05-10T05:15:12;4.20;;;2.40;;
52112;SDS011;38109;49.488;31.988;2023-05-10T05:17:40;3.97;;;2.50;;
52112;SDS011;38109;49.488;31.988;2023-05-10T05:20:05;3.20;;;2.70;;
52112;SDS011;38109;49.488;31.988;2023-05-10T05:22:33;4.13;;;2.95;;
52112;SDS011;38109;49.488;31.988;2023-05-10T05:24:58;3.47;;;2.38;;
52112;SDS011;38109;49.488;31.988;2023-05-10T05:27:24;3.38;;;2.40;;
52112;SDS011;38109;49.488;31.988;2023-05-10T05:29:54;4.20;;;2.50;;
52112;SDS011;38109;49.488;31.988;2023-05-10T05:32:20;4.35;;;2.75;;
52112;SDS011;38109;49.488;31.988;2023-05-10T05:34:46;4.78;;;2.58;;
52112;SDS011;38109;49.488;31.988;2023-05-10T05:37:13;4.88;;;2.90;;
52112;SDS011;38109;49.488;31.988;2023-05-10T05:39:39;2.97;;;2.47;;
52112;SDS011;38109;49.488;31.988;2023-05-10T05:42:05;3.08;;;2.20;;
52112;SDS011;38109;49.488;31.988;2023-05-10T05:44:31;3.47;;;2.50;;
52112;SDS011;38109;49.488;31.988;2023-05-10T05:46:56;3.65;;;2.50;;
52112;SDS011;38109;49.488;31.988;2023-05-10T05:49:22;4.88;;;2.50;;
52112;SDS011;38109;49.488;31.988;2023-05-10T05:51:48;4.18;;;2.67;;
52112;SDS011;38109;49.488;31.988;2023-05-10T05:54:15;4.18;;;2.55;;
52112;SDS011;38109;49.488;31.988;2023-05-10T05:56:41;3.25;;;2.30;;
52112;SDS011;38109;49.488;31.988;2023-05-10T05:59:06;4.32;;;2.42;;
52112;SDS011;38109;49.488;31.988;2023-05-10T06:01:32;3.97;;;2.50;;
52112;SDS011;38109;49.488;31.988;2023-05-10T06:03:58;3.67;;;2.33;;
52112;SDS011;38109;49.488;31.988;2023-05-10T06:06:24;3.85;;;2.30;;
52112;SDS011;38109;49.488;31.988;2023-05-10T06:08:49;3.25;;;2.53;;
52112;SDS011;38109;49.488;31.988;2023-05-10T06:11:15;5.10;;;2.50;;
52112;SDS011;38109;49.488;31.988;2023-05-10T06:13:41;4.65;;;2.70;;
52112;SDS011;38109;49.488;31.988;2023-05-10T06:16:07;5.15;;;2.42;;
52112;SDS011;38109;49.488;31.988;2023-05-10T06:18:33;6.50;;;2.30;;
52112;SDS011;38109;49.488;31.988;2023-05-10T06:20:59;3.00;;;2.15;;
52112;SDS011;38109;49.488;31.988;2023-05-10T06:23:25;4.78;;;2.47;;
52112;SDS011;38109;49.488;31.988;2023-05-10T06:25:51;3.50;;;2.72;;
52112;SDS011;38109;49.488;31.988;2023-05-10T06:28:17;3.85;;;2.33;;
52112;SDS011;38109;49.488;31.988;2023-05-10T06:30:43;3.30;;;2.60;;
52112;SDS011;38109;49.488;31.988;2023-05-10T06:33:09;2.70;;;1.92;;
52112;SDS011;38109;49.488;31.988;2023-05-10T06:35:35;2.88;;;2.20;;
52112;SDS011;38109;49.488;31.988;2023-05-10T06:38:01;3.20;;;2.25;;
52112;SDS011;38109;49.488;31.988;2023-05-10T06:40:27;3.78;;;2.63;;
52112;SDS011;38109;49.488;31.988;2023-05-10T06:42:53;2.97;;;2.10;;
52112;SDS011;38109;49.488;31.988;2023-05-10T06:45:18;4.38;;;2.30;;
52112;SDS011;38109;49.488;31.988;2023-05-10T06:47:44;3.80;;;2.20;;
52112;SDS011;38109;49.488;31.988;2023-05-10T06:50:10;3.40;;;2.28;;
52112;SDS011;38109;49.488;31.988;2023-05-10T06:52:36;3.70;;;2.08;;
52112;SDS011;38109;49.488;31.988;2023-05-10T06:55:03;4.05;;;2.17;;
52112;SDS011;38109;49.488;31.988;2023-05-10T06:57:29;3.83;;;2.00;;
52112;SDS011;38109;49.488;31.988;2023-05-10T06:59:55;2.17;;;1.70;;
52112;SDS011;38109;49.488;31.988;2023-05-10T07:02:21;3.88;;;2.10;;
52112;SDS011;38109;49.488;31.988;2023-05-10T07:04:47;2.90;;;2.25;;
52112;SDS011;38109;49.488;31.988;2023-05-10T07:07:14;2.97;;;1.98;;
52112;SDS011;38109;49.488;31.988;2023-05-10T07:09:39;3.90;;;1.95;;
52112;SDS011;38109;49.488;31.988;2023-05-10T07:12:05;2.05;;;1.67;;
52112;SDS011;38109;49.488;31.988;2023-05-10T07:14:31;1.83;;;1.58;;
52112;SDS011;38109;49.488;31.988;2023-05-10T07:16:57;2.28;;;1.88;;
52112;SDS011;38109;49.488;31.988;2023-05-10T07:19:22;2.25;;;1.60;;
52112;SDS011;38109;49.488;31.988;2023-05-10T07:21:48;2.80;;;1.77;;
52112;SDS011;38109;49.488;31.988;2023-05-10T07:24:15;2.38;;;1.50;;
52112;SDS011;38109;49.488;31.988;2023-05-10T07:26:41;2.03;;;1.77;;
52112;SDS011;38109;49.488;31.988;2023-05-10T07:29:07;1.58;;;1.48;;
52112;SDS011;38109;49.488;31.988;2023-05-10T07:31:32;2.08;;;1.50;;
52112;SDS011;38109;49.488;31.988;2023-05-10T07:33:58;2.72;;;1.85;;
52112;SDS011;38109;49.488;31.988;2023-05-10T07:36:23;1.40;;;1.30;;
52112;SDS011;38109;49.488;31.988;2023-05-10T07:38:49;1.50;;;1.40;;
52112;SDS011;38109;49.488;31.988;2023-05-10T07:41:15;2.08;;;1.73;;
52112;SDS011;38109;49.488;31.988;2023-05-10T07:43:40;2.88;;;1.80;;
52112;SDS011;38109;49.488;31.988;2023-05-10T07:46:06;1.98;;;1.55;;
52112;SDS011;38109;49.488;31.988;2023-05-10T07:48:32;1.92;;;1.40;;
52112;SDS011;38109;49.488;31.988;2023-05-10T07:50:58;2.80;;;1.75;;
52112;SDS011;38109;49.488;31.988;2023-05-10T07:53:25;1.50;;;1.40;;
52112;SDS011;38109;49.488;31.988;2023-05-10T07:55:53;2.50;;;1.65;;
52112;SDS011;38109;49.488;31.988;2023-05-10T07:58:22;2.38;;;1.40;;
52112;SDS011;38109;49.488;31.988;2023-05-10T08:00:48;1.88;;;1.50;;
52112;SDS011;38109;49.488;31.988;2023-05-10T08:03:14;2.60;;;1.60;;
52112;SDS011;38109;49.488;31.988;2023-05-10T08:05:40;2.22;;;1.42;;
52112;SDS011;38109;49.488;31.988;2023-05-10T08:08:06;2.08;;;1.50;;
52112;SDS011;38109;49.488;31.988;2023-05-10T08:10:31;1.60;;;1.40;;
52112;SDS011;38109;49.488;31.988;2023-05-10T08:12:57;1.80;;;1.40;;
52112;SDS011;38109;49.488;31.988;2023-05-10T08:15:23;1.73;;;1.50;;
52112;SDS011;38109;49.488;31.988;2023-05-10T08:17:50;1.65;;;1.45;;
52112;SDS011;38109;49.488;31.988;2023-05-10T08:20:16;3.08;;;1.80;;
52112;SDS011;38109;49.488;31.988;2023-05-10T08:22:44;1.77;;;1.58;;
52112;SDS011;38109;49.488;31.988;2023-05-10T08:25:10;1.85;;;1.40;;
52112;SDS011;38109;49.488;31.988;2023-05-10T08:27:35;2.35;;;1.40;;
52112;SDS011;38109;49.488;31.988;2023-05-10T08:30:01;1.52;;;1.40;;
52112;SDS011;38109;49.488;31.988;2023-05-10T08:32:27;1.50;;;1.40;;
52112;SDS011;38109;49.488;31.988;2023-05-10T08:34:53;1.83;;;1.55;;
52112;SDS011;38109;49.488;31.988;2023-05-10T08:37:18;1.38;;;1.27;;
52112;SDS011;38109;49.488;31.988;2023-05-10T08:39:45;1.77;;;1.40;;
52112;SDS011;38109;49.488;31.988;2023-05-10T08:42:12;1.38;;;1.27;;
52112;SDS011;38109;49.488;31.988;2023-05-10T08:44:43;1.40;;;1.30;;
52112;SDS011;38109;49.488;31.988;2023-05-10T08:47:08;3.58;;;1.60;;
52112;SDS011;38109;49.488;31.988;2023-05-10T08:49:35;1.58;;;1.48;;
52112;SDS011;38109;49.488;31.988;2023-05-10T08:52:03;2.28;;;1.35;;
52112;SDS011;38109;49.488;31.988;2023-05-10T08:54:33;1.48;;;1.35;;
52112;SDS011;38109;49.488;31.988;2023-05-10T08:56:59;1.77;;;1.20;;
52112;SDS011;38109;49.488;31.988;2023-05-10T08:59:25;1.20;;;1.10;;
52112;SDS011;38109;49.488;31.988;2023-05-10T09:01:51;2.35;;;1.40;;
52112;SDS011;38109;49.488;31.988;2023-05-10T09:04:19;1.10;;;1.10;;
52112;SDS011;38109;49.488;31.988;2023-05-10T09:06:45;1.77;;;1.23;;
52112;SDS011;38109;49.488;31.988;2023-05-10T09:09:11;1.40;;;1.30;;
52112;SDS011;38109;49.488;31.988;2023-05-10T09:11:37;1.38;;;1.20;;
52112;SDS011;38109;49.488;31.988;2023-05-10T09:14:03;1.42;;;1.20;;
52112;SDS011;38109;49.488;31.988;2023-05-10T09:16:29;2.45;;;1.20;;
52112;SDS011;38109;49.488;31.988;2023-05-10T09:18:55;1.50;;;1.25;;
52112;SDS011;38109;49.488;31.988;2023-05-10T09:21:21;1.38;;;1.27;;
52112;SDS011;38109;49.488;31.988;2023-05-10T09:23:47;1.35;;;1.25;;
52112;SDS011;38109;49.488;31.988;2023-05-10T09:26:14;1.92;;;1.23;;
52112;SDS011;38109;49.488;31.988;2023-05-10T09:28:54;1.35;;;1.25;;
52112;SDS011;38109;49.488;31.988;2023-05-10T09:31:21;1.30;;;1.20;;
52112;SDS011;38109;49.488;31.988;2023-05-10T09:33:47;1.60;;;1.40;;
52112;SDS011;38109;49.488;31.988;2023-05-10T09:36:14;1.70;;;1.33;;
52112;SDS011;38109;49.488;31.988;2023-05-10T09:41:21;1.30;;;1.20;;
52112;SDS011;38109;49.488;31.988;2023-05-10T09:43:47;1.48;;;1.38;;
52112;SDS011;38109;49.488;31.988;2023-05-10T09:46:14;2.20;;;1.25;;
52112;SDS011;38109;49.488;31.988;2023-05-10T09:48:45;1.48;;;1.38;;
52112;SDS011;38109;49.488;31.988;2023-05-10T09:51:22;1.88;;;1.50;;
52112;SDS011;38109;49.488;31.988;2023-05-10T09:53:50;1.52;;;1.30;;
52112;SDS011;38109;49.488;31.988;2023-05-10T09:56:37;10.68;;;4.47;;
52112;SDS011;38109;49.488;31.988;2023-05-10T09:59:05;2.45;;;1.90;;
52112;SDS011;38109;49.488;31.988;2023-05-10T10:01:33;8.32;;;3.97;;
52112;SDS011;38109;49.488;31.988;2023-05-10T10:04:02;5.00;;;3.00;;
52112;SDS011;38109;49.488;31.988;2023-05-10T10:06:29;2.38;;;1.90;;
52112;SDS011;38109;49.488;31.988;2023-05-10T10:08:57;2.53;;;1.50;;
52112;SDS011;38109;49.488;31.988;2023-05-10T10:11:22;1.60;;;1.50;;
52112;SDS011;38109;49.488;31.988;2023-05-10T10:13:49;3.00;;;1.60;;
52112;SDS011;38109;49.488;31.988;2023-05-10T10:16:14;1.50;;;1.40;;
52112;SDS011;38109;49.488;31.988;2023-05-10T10:18:40;1.45;;;1.35;;
52112;SDS011;38109;49.488;31.988;2023-05-10T10:21:07;1.40;;;1.30;;
52112;SDS011;38109;49.488;31.988;2023-05-10T10:23:35;1.42;;;1.33;;
52112;SDS011;38109;49.488;31.988;2023-05-10T10:26:04;1.40;;;1.30;;
52112;SDS011;38109;49.488;31.988;2023-05-10T10:31:26;1.50;;;1.40;;
52112;SDS011;38109;49.488;31.988;2023-05-10T10:34:18;2.55;;;1.40;;
52112;SDS011;38109;49.488;31.988;2023-05-10T10:36:51;1.50;;;1.40;;
52112;SDS011;38109;49.488;31.988;2023-05-10T10:39:17;1.35;;;1.20;;
52112;SDS011;38109;49.488;31.988;2023-05-10T10:41:51;1.67;;;1.30;;
52112;SDS011;38109;49.488;31.988;2023-05-10T10:52:24;1.80;;;1.42;;
52112;SDS011;38109;49.488;31.988;2023-05-10T10:55:04;1.52;;;1.38;;
52112;SDS011;38109;49.488;31.988;2023-05-10T11:07:55;1.70;;;1.48;;
52112;SDS011;38109;49.488;31.988;2023-05-10T11:10:23;2.03;;;1.38;;
52112;SDS011;38109;49.488;31.988;2023-05-10T11:13:03;1.42;;;1.33;;
52112;SDS011;38109;49.488;31.988;2023-05-10T11:18:19;1.50;;;1.40;;
52112;SDS011;38109;49.488;31.988;2023-05-10T11:20:51;3.08;;;1.48;;
52112;SDS011;38109;49.488;31.988;2023-05-10T11:23:32;2.13;;;1.40;;
52112;SDS011;38109;49.488;31.988;2023-05-10T11:26:12;1.58;;;1.48;;
52112;SDS011;38109;49.488;31.988;2023-05-10T11:28:44;1.50;;;1.40;;
52112;SDS011;38109;49.488;31.988;2023-05-10T11:31:14;1.50;;;1.40;;
52112;SDS011;38109;49.488;31.988;2023-05-10T11:33:47;1.25;;;1.25;;
52112;SDS011;38109;49.488;31.988;2023-05-10T11:36:16;1.60;;;1.50;;
52112;SDS011;38109;49.488;31.988;2023-05-10T11:38:42;1.60;;;1.50;;
52112;SDS011;38109;49.488;31.988;2023-05-10T11:41:08;1.40;;;1.30;;
52112;SDS011;38109;49.488;31.988;2023-05-10T11:43:35;1.63;;;1.50;;
52112;SDS011;38109;49.488;31.988;2023-05-10T11:46:03;1.60;;;1.50;;
52112;SDS011;38109;49.488;31.988;2023-05-10T11:48:30;1.70;;;1.40;;
52112;SDS011;38109;49.488;31.988;2023-05-10T11:50:56;10.85;;;6.00;;
52112;SDS011;38109;49.488;31.988;2023-05-10T11:53:22;1.98;;;1.70;;
52112;SDS011;38109;49.488;31.988;2023-05-10T11:55:51;1.58;;;1.48;;
52112;SDS011;38109;49.488;31.988;2023-05-10T11:58:17;1.52;;;1.40;;
52112;SDS011;38109;49.488;31.988;2023-05-10T12:00:43;1.70;;;1.60;;
52112;SDS011;38109;49.488;31.988;2023-05-10T12:03:10;1.60;;;1.50;;
52112;SDS011;38109;49.488;31.988;2023-05-10T12:05:36;1.58;;;1.48;;
52112;SDS011;38109;49.488;31.988;2023-05-10T12:08:15;1.40;;;1.30;;
52112;SDS011;38109;49.488;31.988;2023-05-10T12:10:44;1.60;;;1.50;;
52112;SDS011;38109;49.488;31.988;2023-05-10T12:13:11;1.50;;;1.40;;
52112;SDS011;38109;49.488;31.988;2023-05-10T12:15:40;1.90;;;1.30;;
52112;SDS011;38109;49.488;31.988;2023-05-10T12:18:10;1.83;;;1.60;;
52112;SDS011;38109;49.488;31.988;2023-05-10T12:20:37;2.15;;;1.50;;
52112;SDS011;38109;49.488;31.988;2023-05-10T12:23:04;1.75;;;1.45;;
52112;SDS011;38109;49.488;31.988;2023-05-10T12:25:31;2.22;;;1.40;;
52112;SDS011;38109;49.488;31.988;2023-05-10T12:27:58;1.60;;;1.50;;
52112;SDS011;38109;49.488;31.988;2023-05-10T12:30:28;1.40;;;1.30;;
52112;SDS011;38109;49.488;31.988;2023-05-10T12:33:03;1.92;;;1.58;;
52112;SDS011;38109;49.488;31.988;2023-05-10T12:35:33;2.28;;;1.60;;
52112;SDS011;38109;49.488;31.988;2023-05-10T12:38:25;1.40;;;1.30;;
52112;SDS011;38109;49.488;31.988;2023-05-10T12:40:53;1.83;;;1.50;;
52112;SDS011;38109;49.488;31.988;2023-05-10T12:43:19;1.60;;;1.50;;
52112;SDS011;38109;49.488;31.988;2023-05-10T12:45:45;1.70;;;1.45;;
52112;SDS011;38109;49.488;31.988;2023-05-10T12:48:14;1.30;;;1.20;;
52112;SDS011;38109;49.488;31.988;2023-05-10T12:50:40;1.45;;;1.35;;
52112;SDS011;38109;49.488;31.988;2023-05-10T12:53:05;1.58;;;1.38;;
52112;SDS011;38109;49.488;31.988;2023-05-10T12:55:31;1.50;;;1.40;;
52112;SDS011;38109;49.488;31.988;2023-05-10T12:57:57;1.40;;;1.30;;
52112;SDS011;38109;49.488;31.988;2023-05-10T13:00:25;2.33;;;1.63;;
52112;SDS011;38109;49.488;31.988;2023-05-10T13:02:51;2.42;;;1.77;;
52112;SDS011;38109;49.488;31.988;2023-05-10T13:07:54;1.50;;;1.40;;
52112;SDS011;38109;49.488;31.988;2023-05-10T13:10:21;1.40;;;1.30;;
52112;SDS011;38109;49.488;31.988;2023-05-10T13:12:48;1.73;;;1.27;;
52112;SDS011;38109;49.488;31.988;2023-05-10T13:15:16;1.83;;;1.38;;
52112;SDS011;38109;49.488;31.988;2023-05-10T13:17:42;1.40;;;1.30;;
52112;SDS011;38109;49.488;31.988;2023-05-10T13:20:08;1.25;;;1.15;;
52112;SDS011;38109;49.488;31.988;2023-05-10T13:22:37;1.40;;;1.30;;
52112;SDS011;38109;49.488;31.988;2023-05-10T13:25:03;1.38;;;1.27;;
52112;SDS011;38109;49.488;31.988;2023-05-10T13:27:32;1.45;;;1.35;;
52112;SDS011;38109;49.488;31.988;2023-05-10T13:29:59;1.48;;;1.38;;
52112;SDS011;38109;49.488;31.988;2023-05-10T13:32:30;1.23;;;1.13;;
52112;SDS011;38109;49.488;31.988;2023-05-10T13:34:56;1.40;;;1.30;;
52112;SDS011;38109;49.488;31.988;2023-05-10T13:37:22;1.55;;;1.30;;
52112;SDS011;38109;49.488;31.988;2023-05-10T13:39:55;1.50;;;1.40;;
52112;SDS011;38109;49.488;31.988;2023-05-10T13:42:31;1.42;;;1.33;;
52112;SDS011;38109;49.488;31.988;2023-05-10T13:45:00;1.27;;;1.25;;
52112;SDS011;38109;49.488;31.988;2023-05-10T13:47:30;3.78;;;1.38;;
52112;SDS011;38109;49.488;31.988;2023-05-10T13:49:56;1.40;;;1.30;;
52112;SDS011;38109;49.488;31.988;2023-05-10T13:52:22;1.35;;;1.25;;
52112;SDS011;38109;49.488;31.988;2023-05-10T13:54:49;1.58;;;1.30;;
52112;SDS011;38109;49.488;31.988;2023-05-10T13:57:23;2.75;;;1.80;;
52112;SDS011;38109;49.488;31.988;2023-05-10T13:59:50;1.60;;;1.50;;
52112;SDS011;38109;49.488;31.988;2023-05-10T14:02:23;2.08;;;1.30;;
52112;SDS011;38109;49.488;31.988;2023-05-10T14:04:51;1.50;;;1.40;;
52112;SDS011;38109;49.488;31.988;2023-05-10T14:07:17;2.03;;;1.33;;
52112;SDS011;38109;49.488;31.988;2023-05-10T14:09:42;1.20;;;1.20;;
52112;SDS011;38109;49.488;31.988;2023-05-10T14:12:09;1.45;;;1.30;;
52112;SDS011;38109;49.488;31.988;2023-05-10T14:14:35;1.55;;;1.45;;
52112;SDS011;38109;49.488;31.988;2023-05-10T14:17:11;1.60;;;1.50;;
52112;SDS011;38109;49.488;31.988;2023-05-10T14:19:37;1.63;;;1.52;;
52112;SDS011;38109;49.488;31.988;2023-05-10T14:22:03;1.85;;;1.60;;
52112;SDS011;38109;49.488;31.988;2023-05-10T14:24:29;1.50;;;1.40;;
52112;SDS011;38109;49.488;31.988;2023-05-10T14:26:55;1.77;;;1.60;;
52112;SDS011;38109;49.488;31.988;2023-05-10T14:29:21;1.45;;;1.35;;
52112;SDS011;38109;49.488;31.988;2023-05-10T14:31:47;2.63;;;1.60;;
52112;SDS011;38109;49.488;31.988;2023-05-10T14:34:12;1.55;;;1.45;;
52112;SDS011;38109;49.488;31.988;2023-05-10T14:36:38;2.05;;;1.42;;
52112;SDS011;38109;49.488;31.988;2023-05-10T14:39:05;1.85;;;1.42;;
52112;SDS011;38109;49.488;31.988;2023-05-10T14:41:31;2.15;;;1.48;;
52112;SDS011;38109;49.488;31.988;2023-05-10T14:43:57;1.77;;;1.67;;
52112;SDS011;38109;49.488;31.988;2023-05-10T14:46:23;1.60;;;1.50;;
52112;SDS011;38109;49.488;31.988;2023-05-10T14:48:51;2.10;;;1.70;;
52112;SDS011;38109;49.488;31.988;2023-05-10T14:51:16;2.15;;;1.70;;
52112;SDS011;38109;49.488;31.988;2023-05-10T14:53:43;1.88;;;1.67;;
52112;SDS011;38109;49.488;31.988;2023-05-10T14:56:11;2.47;;;1.58;;
52112;SDS011;38109;49.488;31.988;2023-05-10T14:58:37;1.90;;;1.70;;
52112;SDS011;38109;49.488;31.988;2023-05-10T15:01:03;1.95;;;1.55;;
52112;SDS011;38109;49.488;31.988;2023-05-10T15:03:29;2.72;;;1.73;;
52112;SDS011;38109;49.488;31.988;2023-05-10T15:05:55;1.65;;;1.55;;
52112;SDS011;38109;49.488;31.988;2023-05-10T15:08:22;1.77;;;1.52;;
52112;SDS011;38109;49.488;31.988;2023-05-10T15:10:49;2.20;;;1.70;;
52112;SDS011;38109;49.488;31.988;2023-05-10T15:13:15;1.75;;;1.58;;
52112;SDS011;38109;49.488;31.988;2023-05-10T15:15:41;1.73;;;1.40;;
52112;SDS011;38109;49.488;31.988;2023-05-10T15:18:08;1.65;;;1.55;;